sensor_id;sensor_type;location;lat;lon;timestamp;temperature;humidity
22984;DHT22;11658;48.908;9.140;2023-04-08T04:02:06;7.30;99.90
22984;DHT22;11658;48.908;9.140;2023-04-08T04:04:32;7.30;99.90
22984;DHT22;11658;48.908;9.140;2023-04-08T04:06:58;7.20;99.90
22984;DHT22;11658;48.908;9.140;2023-04-08T04:09:24;7.20;99.90
22984;DHT22;11658;48.908;9.140;2023-04-08T04:11:49;7.20;99.90
22984;DHT22;11658;48.908;9.140;2023-04-08T04:14:15;7.10;99.90
22984;DHT22;11658;48.908;9.140;2023-04-08T04:16:40;6.90;99.90
22984;DHT22;11658;48.908;9.140;2023-04-08T04:19:06;6.80;99.90
22984;DHT22;11658;48.908;9.140;2023-04-08T04:21:32;6.80;99.90
22984;DHT22;11658;48.908;9.140;2023-04-08T04:23:57;6.70;99.90
22984;DHT22;11658;48.908;9.140;2023-04-08T04:26:23;6.70;99.90
22984;DHT22;11658;48.908;9.140;2023-04-08T04:28:48;6.90;99.90
22984;DHT22;11658;48.908;9.140;2023-04-08T04:31:22;6.50;99.90
22984;DHT22;11658;48.908;9.140;2023-04-08T04:33:48;6.40;99.90
22984;DHT22;11658;48.908;9.140;2023-04-08T04:36:14;6.40;99.90
22984;DHT22;11658;48.908;9.140;2023-04-08T04:38:40;6.30;99.90
22984;DHT22;11658;48.908;9.140;2023-04-08T04:41:07;6.50;99.90
22984;DHT22;11658;48.908;9.140;2023-04-08T04:43:32;6.30;99.90
22984;DHT22;11658;48.908;9.140;2023-04-08T04:45:58;6.20;99.90
22984;DHT22;11658;48.908;9.140;2023-04-08T04:48:24;6.20;99.90
22984;DHT22;11658;48.908;9.140;2023-04-08T04:50:56;6.10;99.90
22984;DHT22;11658;48.908;9.140;2023-04-08T04:53:23;6.00;99.90
22984;DHT22;11658;48.908;9.140;2023-04-08T04:55:52;6.00;99.90
22984;DHT22;11658;48.908;9.140;2023-04-08T04:58:17;5.90;99.90
22984;DHT22;11658;48.908;9.140;2023-04-08T05:00:44;5.90;99.90
22984;DHT22;11658;48.908;9.140;2023-04-08T05:03:09;5.90;99.90
22984;DHT22;11658;48.908;9.140;2023-04-08T05:05:35;5.90;99.90
22984;DHT22;11658;48.908;9.140;2023-04-08T05:08:01;5.90;99.90
22984;DHT22;11658;48.908;9.140;2023-04-08T05:10:26;5.80;99.90
22984;DHT22;11658;48.908;9.140;2023-04-08T05:12:52;5.80;99.90
22984;DHT22;11658;48.908;9.140;2023-04-08T05:15:18;5.90;99.90
22984;DHT22;11658;48.908;9.140;2023-04-08T05:17:43;5.90;99.90
22984;DHT22;11658;48.908;9.140;2023-04-08T05:20:09;5.90;99.90
22984;DHT22;11658;48.908;9.140;2023-04-08T05:22:35;5.90;99.90
22984;DHT22;11658;48.908;9.140;2023-04-08T05:25:01;5.90;99.90
22984;DHT22;11658;48.908;9.140;2023-04-08T05:27:26;6.00;99.90
22984;DHT22;11658;48.908;9.140;2023-04-08T05:29:52;6.20;99.90
22984;DHT22;11658;48.908;9.140;2023-04-08T05:32:18;6.20;99.90
22984;DHT22;11658;48.908;9.140;2023-04-08T05:34:43;6.40;99.90
22984;DHT22;11658;48.908;9.140;2023-04-08T05:37:09;6.50;99.90
22984;DHT22;11658;48.908;9.140;2023-04-08T05:39:35;6.50;99.90
22984;DHT22;11658;48.908;9.140;2023-04-08T05:42:01;6.70;99.90
22984;DHT22;11658;48.908;9.140;2023-04-08T05:44:26;6.80;99.90
22984;DHT22;11658;48.908;9.140;2023-04-08T05:46:52;7.00;99.90
22984;DHT22;11658;48.908;9.140;2023-04-08T05:49:18;7.00;99.90
22984;DHT22;11658;48.908;9.140;2023-04-08T05:51:44;7.10;99.90
22984;DHT22;11658;48.908;9.140;2023-04-08T05:54:09;7.20;99.90
22984;DHT22;11658;48.908;9.140;2023-04-08T05:56:35;7.30;99.90
22984;DHT22;11658;48.908;9.140;2023-04-08T05:59:00;7.30;99.90
22984;DHT22;11658;48.908;9.140;2023-04-08T06:01:26;7.40;99.90
22984;DHT22;11658;48.908;9.140;2023-04-08T06:03:52;7.50;99.90
22984;DHT22;11658;48.908;9.140;2023-04-08T06:06:17;7.60;99.90
22984;DHT22;11658;48.908;9.140;2023-04-08T06:08:43;7.70;99.90
22984;DHT22;11658;48.908;9.140;2023-04-08T06:11:08;7.80;99.90
22984;DHT22;11658;48.908;9.140;2023-04-08T06:13:34;7.60;99.90
22984;DHT22;11658;48.908;9.140;2023-04-08T06:16:10;7.70;99.90
22984;DHT22;11658;48.908;9.140;2023-04-08T06:18:36;7.50;99.90
22984;DHT22;11658;48.908;9.140;2023-04-08T06:21:01;7.40;99.90
22984;DHT22;11658;48.908;9.140;2023-04-08T06:23:27;7.40;99.90
22984;DHT22;11658;48.908;9.140;2023-04-08T06:25:52;7.50;99.90
22984;DHT22;11658;48.908;9.140;2023-04-08T06:28:18;7.50;99.90
22984;DHT22;11658;48.908;9.140;2023-04-08T06:30:44;7.60;99.90
22984;DHT22;11658;48.908;9.140;2023-04-08T06:33:09;7.80;99.90
22984;DHT22;11658;48.908;9.140;2023-04-08T06:35:35;7.80;99.90
22984;DHT22;11658;48.908;9.140;2023-04-08T06:38:03;8.00;99.90
22984;DHT22;11658;48.908;9.140;2023-04-08T06:40:29;8.00;99.90
22984;DHT22;11658;48.908;9.140;2023-04-08T06:42:55;8.00;99.90
22984;DHT22;11658;48.908;9.140;2023-04-08T06:45:20;7.90;99.90
22984;DHT22;11658;48.908;9.140;2023-04-08T06:47:46;8.00;99.90
22984;DHT22;11658;48.908;9.140;2023-04-08T06:50:12;8.00;99.90
22984;DHT22;11658;48.908;9.140;2023-04-08T06:52:37;7.90;99.90
22984;DHT22;11658;48.908;9.140;2023-04-08T06:55:03;8.00;99.90
22984;DHT22;11658;48.908;9.140;2023-04-08T06:57:29;8.10;99.90
22984;DHT22;11658;48.908;9.140;2023-04-08T06:59:54;8.10;99.90
22984;DHT22;11658;48.908;9.140;2023-04-08T07:02:20;8.10;99.90
22984;DHT22;11658;48.908;9.140;2023-04-08T07:04:47;8.00;99.90
22984;DHT22;11658;48.908;9.140;2023-04-08T07:07:12;8.00;99.90
22984;DHT22;11658;48.908;9.140;2023-04-08T07:09:38;8.30;99.90
22984;DHT22;11658;48.908;9.140;2023-04-08T07:12:05;8.60;99.90
22984;DHT22;11658;48.908;9.140;2023-04-08T07:14:31;8.80;99.90
22984;DHT22;11658;48.908;9.140;2023-04-08T07:16:56;9.00;99.90
22984;DHT22;11658;48.908;9.140;2023-04-08T07:19:22;8.90;99.90
22984;DHT22;11658;48.908;9.140;2023-04-08T07:21:48;8.90;99.90
22984;DHT22;11658;48.908;9.140;2023-04-08T07:24:14;9.10;99.90
22984;DHT22;11658;48.908;9.140;2023-04-08T07:26:40;9.10;99.90
22984;DHT22;11658;48.908;9.140;2023-04-08T07:29:06;9.10;99.90
22984;DHT22;11658;48.908;9.140;2023-04-08T07:31:32;9.40;99.90
22984;DHT22;11658;48.908;9.140;2023-04-08T07:33:57;9.30;99.90
22984;DHT22;11658;48.908;9.140;2023-04-08T07:36:23;9.20;99.90
22984;DHT22;11658;48.908;9.140;2023-04-08T07:38:49;9.20;99.90
22984;DHT22;11658;48.908;9.140;2023-04-08T07:41:14;9.10;99.90
22984;DHT22;11658;48.908;9.140;2023-04-08T07:43:40;9.10;99.90
22984;DHT22;11658;48.908;9.140;2023-04-08T07:46:06;9.00;99.90
22984;DHT22;11658;48.908;9.140;2023-04-08T07:48:33;9.20;99.90
22984;DHT22;11658;48.908;9.140;2023-04-08T07:51:06;9.40;99.90
22984;DHT22;11658;48.908;9.140;2023-04-08T07:53:32;9.20;99.90
22984;DHT22;11658;48.908;9.140;2023-04-08T07:55:58;9.40;99.90
22984;DHT22;11658;48.908;9.140;2023-04-08T07:58:24;9.50;99.90
22984;DHT22;11658;48.908;9.140;2023-04-08T08:00:50;9.50;99.90
22984;DHT22;11658;48.908;9.140;2023-04-08T08:03:16;9.60;99.90
22984;DHT22;11658;48.908;9.140;2023-04-08T08:05:41;10.10;99.90
22984;DHT22;11658;48.908;9.140;2023-04-08T08:08:07;10.00;99.90
22984;DHT22;11658;48.908;9.140;2023-04-08T08:10:39;10.00;99.90
22984;DHT22;11658;48.908;9.140;2023-04-08T08:13:05;10.10;99.90
22984;DHT22;11658;48.908;9.140;2023-04-08T08:15:31;10.30;99.90
22984;DHT22;11658;48.908;9.140;2023-04-08T08:17:57;10.50;99.90
22984;DHT22;11658;48.908;9.140;2023-04-08T08:20:22;10.70;99.90
22984;DHT22;11658;48.908;9.140;2023-04-08T08:22:48;10.50;99.90
22984;DHT22;11658;48.908;9.140;2023-04-08T08:25:14;10.20;99.90
22984;DHT22;11658;48.908;9.140;2023-04-08T08:27:39;10.40;99.90
22984;DHT22;11658;48.908;9.140;2023-04-08T08:30:07;10.30;99.90
22984;DHT22;11658;48.908;9.140;2023-04-08T08:32:34;10.40;99.90
22984;DHT22;11658;48.908;9.140;2023-04-08T08:35:00;10.30;99.90
22984;DHT22;11658;48.908;9.140;2023-04-08T08:37:25;10.10;99.90
22984;DHT22;11658;48.908;9.140;2023-04-08T08:39:51;10.10;99.90
22984;DHT22;11658;48.908;9.140;2023-04-08T08:42:21;10.20;99.90
22984;DHT22;11658;48.908;9.140;2023-04-08T08:44:47;10.20;99.90
22984;DHT22;11658;48.908;9.140;2023-04-08T08:47:13;10.40;99.90
22984;DHT22;11658;48.908;9.140;2023-04-08T08:49:39;10.50;99.90
22984;DHT22;11658;48.908;9.140;2023-04-08T08:52:05;10.30;99.90
22984;DHT22;11658;48.908;9.140;2023-04-08T08:54:31;10.40;99.90
22984;DHT22;11658;48.908;9.140;2023-04-08T08:56:57;10.60;99.90
22984;DHT22;11658;48.908;9.140;2023-04-08T08:59:22;10.30;99.90
22984;DHT22;11658;48.908;9.140;2023-04-08T09:01:48;10.30;99.90
22984;DHT22;11658;48.908;9.140;2023-04-08T09:04:16;11.10;99.90
22984;DHT22;11658;48.908;9.140;2023-04-08T09:06:43;10.60;99.90
22984;DHT22;11658;48.908;9.140;2023-04-08T09:09:09;10.90;99.90
22984;DHT22;11658;48.908;9.140;2023-04-08T09:11:36;11.10;99.90
22984;DHT22;11658;48.908;9.140;2023-04-08T09:14:02;11.00;99.90
22984;DHT22;11658;48.908;9.140;2023-04-08T09:16:29;11.30;99.90
22984;DHT22;11658;48.908;9.140;2023-04-08T09:19:07;11.70;99.90
22984;DHT22;11658;48.908;9.140;2023-04-08T09:21:33;11.90;99.90
22984;DHT22;11658;48.908;9.140;2023-04-08T09:23:59;11.90;99.90
22984;DHT22;11658;48.908;9.140;2023-04-08T09:26:25;12.10;99.90
22984;DHT22;11658;48.908;9.140;2023-04-08T09:29:02;12.20;99.90
22984;DHT22;11658;48.908;9.140;2023-04-08T09:31:30;12.00;99.90
22984;DHT22;11658;48.908;9.140;2023-04-08T09:33:58;11.90;99.90
22984;DHT22;11658;48.908;9.140;2023-04-08T09:36:24;12.20;99.90
22984;DHT22;11658;48.908;9.140;2023-04-08T09:38:52;12.50;99.90
22984;DHT22;11658;48.908;9.140;2023-04-08T09:41:19;12.50;99.90
22984;DHT22;11658;48.908;9.140;2023-04-08T09:43:49;12.50;99.90
22984;DHT22;11658;48.908;9.140;2023-04-08T09:46:17;12.60;99.90
22984;DHT22;11658;48.908;9.140;2023-04-08T09:48:49;12.40;99.90
22984;DHT22;11658;48.908;9.140;2023-04-08T09:51:18;11.90;99.90
22984;DHT22;11658;48.908;9.140;2023-04-08T09:53:47;11.60;99.90
22984;DHT22;11658;48.908;9.140;2023-04-08T09:56:14;11.60;99.90
22984;DHT22;11658;48.908;9.140;2023-04-08T09:58:48;12.10;99.90
22984;DHT22;11658;48.908;9.140;2023-04-08T10:01:28;12.30;99.90
22984;DHT22;11658;48.908;9.140;2023-04-08T10:03:57;12.00;99.90
22984;DHT22;11658;48.908;9.140;2023-04-08T10:06:27;11.60;99.90
22984;DHT22;11658;48.908;9.140;2023-04-08T10:08:55;11.50;99.90
22984;DHT22;11658;48.908;9.140;2023-04-08T10:11:21;11.70;99.90
22984;DHT22;11658;48.908;9.140;2023-04-08T10:13:47;11.70;99.90
22984;DHT22;11658;48.908;9.140;2023-04-08T10:16:23;11.70;99.90
22984;DHT22;11658;48.908;9.140;2023-04-08T10:18:50;11.80;99.90
22984;DHT22;11658;48.908;9.140;2023-04-08T10:21:40;11.90;99.90
22984;DHT22;11658;48.908;9.140;2023-04-08T10:24:12;11.50;99.90
22984;DHT22;11658;48.908;9.140;2023-04-08T10:26:43;11.20;99.90
22984;DHT22;11658;48.908;9.140;2023-04-08T10:31:44;10.90;99.90
22984;DHT22;11658;48.908;9.140;2023-04-08T10:34:21;10.80;99.90
22984;DHT22;11658;48.908;9.140;2023-04-08T10:36:51;11.30;99.90
22984;DHT22;11658;48.908;9.140;2023-04-08T10:39:17;11.40;99.90
22984;DHT22;11658;48.908;9.140;2023-04-08T10:41:48;11.30;99.90
22984;DHT22;11658;48.908;9.140;2023-04-08T10:44:18;11.00;99.90
22984;DHT22;11658;48.908;9.140;2023-04-08T10:46:47;11.20;99.90
22984;DHT22;11658;48.908;9.140;2023-04-08T10:49:14;11.10;99.90
22984;DHT22;11658;48.908;9.140;2023-04-08T10:51:40;11.20;99.90
22984;DHT22;11658;48.908;9.140;2023-04-08T10:54:13;11.00;99.90
22984;DHT22;11658;48.908;9.140;2023-04-08T10:59:10;11.20;99.90
22984;DHT22;11658;48.908;9.140;2023-04-08T11:01:39;11.20;99.90
22984;DHT22;11658;48.908;9.140;2023-04-08T11:04:15;11.20;99.90
22984;DHT22;11658;48.908;9.140;2023-04-08T11:06:43;11.40;99.90
22984;DHT22;11658;48.908;9.140;2023-04-08T11:09:10;11.50;99.90
22984;DHT22;11658;48.908;9.140;2023-04-08T11:11:36;11.30;99.90
22984;DHT22;11658;48.908;9.140;2023-04-08T11:14:02;11.10;99.90
22984;DHT22;11658;48.908;9.140;2023-04-08T11:16:28;11.00;99.90
22984;DHT22;11658;48.908;9.140;2023-04-08T11:18:54;10.90;99.90
22984;DHT22;11658;48.908;9.140;2023-04-08T11:21:24;11.00;99.90
22984;DHT22;11658;48.908;9.140;2023-04-08T11:23:53;11.10;99.90
22984;DHT22;11658;48.908;9.140;2023-04-08T11:26:18;11.10;99.90
22984;DHT22;11658;48.908;9.140;2023-04-08T11:28:46;11.20;99.90
22984;DHT22;11658;48.908;9.140;2023-04-08T11:31:13;11.20;99.90
22984;DHT22;11658;48.908;9.140;2023-04-08T11:33:47;11.10;99.90
22984;DHT22;11658;48.908;9.140;2023-04-08T11:36:13;10.90;99.90
22984;DHT22;11658;48.908;9.140;2023-04-08T11:38:39;10.70;99.90
22984;DHT22;11658;48.908;9.140;2023-04-08T11:41:08;10.60;99.90
22984;DHT22;11658;48.908;9.140;2023-04-08T11:43:34;10.60;99.90
22984;DHT22;11658;48.908;9.140;2023-04-08T11:46:11;10.60;99.90
22984;DHT22;11658;48.908;9.140;2023-04-08T11:48:37;10.70;99.90
22984;DHT22;11658;48.908;9.140;2023-04-08T11:51:05;10.80;99.90
22984;DHT22;11658;48.908;9.140;2023-04-08T11:53:33;10.80;99.90
22984;DHT22;11658;48.908;9.140;2023-04-08T11:56:17;10.70;99.90
22984;DHT22;11658;48.908;9.140;2023-04-08T11:58:43;10.90;99.90
22984;DHT22;11658;48.908;9.140;2023-04-08T12:01:09;10.90;99.90
22984;DHT22;11658;48.908;9.140;2023-04-08T12:03:35;11.00;99.90
22984;DHT22;11658;48.908;9.140;2023-04-08T12:06:01;11.30;99.90
22984;DHT22;11658;48.908;9.140;2023-04-08T12:08:27;11.50;99.90
22984;DHT22;11658;48.908;9.140;2023-04-08T12:10:52;11.50;99.90
22984;DHT22;11658;48.908;9.140;2023-04-08T12:13:18;11.50;99.90
22984;DHT22;11658;48.908;9.140;2023-04-08T12:15:43;11.60;99.90
22984;DHT22;11658;48.908;9.140;2023-04-08T12:18:09;12.00;99.90
22984;DHT22;11658;48.908;9.140;2023-04-08T12:20:35;12.40;99.90
22984;DHT22;11658;48.908;9.140;2023-04-08T12:23:00;12.20;99.90
22984;DHT22;11658;48.908;9.140;2023-04-08T12:25:26;12.30;99.90
22984;DHT22;11658;48.908;9.140;2023-04-08T12:27:52;12.10;99.90
22984;DHT22;11658;48.908;9.140;2023-04-08T12:30:17;11.90;99.90
22984;DHT22;11658;48.908;9.140;2023-04-08T12:32:43;11.80;99.90
22984;DHT22;11658;48.908;9.140;2023-04-08T12:35:10;11.50;99.90
22984;DHT22;11658;48.908;9.140;2023-04-08T12:37:35;11.50;99.90
22984;DHT22;11658;48.908;9.140;2023-04-08T12:40:01;11.50;99.90
22984;DHT22;11658;48.908;9.140;2023-04-08T12:42:27;11.40;99.90
22984;DHT22;11658;48.908;9.140;2023-04-08T12:44:52;11.40;99.90
22984;DHT22;11658;48.908;9.140;2023-04-08T12:47:18;11.60;99.90
22984;DHT22;11658;48.908;9.140;2023-04-08T12:49:44;11.80;99.90
22984;DHT22;11658;48.908;9.140;2023-04-08T12:52:09;11.80;99.90
22984;DHT22;11658;48.908;9.140;2023-04-08T12:54:35;12.00;99.90
22984;DHT22;11658;48.908;9.140;2023-04-08T12:57:00;12.00;99.90
22984;DHT22;11658;48.908;9.140;2023-04-08T12:59:30;12.10;99.90
22984;DHT22;11658;48.908;9.140;2023-04-08T13:01:57;12.20;99.90
22984;DHT22;11658;48.908;9.140;2023-04-08T13:04:23;12.20;99.90
22984;DHT22;11658;48.908;9.140;2023-04-08T13:06:49;12.00;99.90
22984;DHT22;11658;48.908;9.140;2023-04-08T13:09:15;12.10;99.90
22984;DHT22;11658;48.908;9.140;2023-04-08T13:11:41;12.20;99.90
22984;DHT22;11658;48.908;9.140;2023-04-08T13:14:07;12.40;99.90
22984;DHT22;11658;48.908;9.140;2023-04-08T13:16:33;12.80;99.90
22984;DHT22;11658;48.908;9.140;2023-04-08T13:18:58;13.10;99.90
22984;DHT22;11658;48.908;9.140;2023-04-08T13:21:24;13.40;99.90
22984;DHT22;11658;48.908;9.140;2023-04-08T13:23:50;13.00;99.90
22984;DHT22;11658;48.908;9.140;2023-04-08T13:26:16;12.60;99.90
22984;DHT22;11658;48.908;9.140;2023-04-08T13:28:42;12.40;99.90
22984;DHT22;11658;48.908;9.140;2023-04-08T13:31:07;11.80;99.90
22984;DHT22;11658;48.908;9.140;2023-04-08T13:33:33;12.00;99.90
22984;DHT22;11658;48.908;9.140;2023-04-08T13:35:58;12.30;99.90
22984;DHT22;11658;48.908;9.140;2023-04-08T13:38:24;12.40;99.90
22984;DHT22;11658;48.908;9.140;2023-04-08T13:40:50;12.50;99.90
22984;DHT22;11658;48.908;9.140;2023-04-08T13:43:15;12.30;99.90
22984;DHT22;11658;48.908;9.140;2023-04-08T13:45:41;11.60;99.90
22984;DHT22;11658;48.908;9.140;2023-04-08T13:48:07;11.60;99.90
22984;DHT22;11658;48.908;9.140;2023-04-08T13:50:33;11.40;99.90
22984;DHT22;11658;48.908;9.140;2023-04-08T13:52:58;11.60;99.90
22984;DHT22;11658;48.908;9.140;2023-04-08T13:55:24;11.80;99.90
22984;DHT22;11658;48.908;9.140;2023-04-08T13:57:50;12.10;99.90
22984;DHT22;11658;48.908;9.140;2023-04-08T14:00:16;12.10;99.90
22984;DHT22;11658;48.908;9.140;2023-04-08T14:02:41;12.30;99.90
22984;DHT22;11658;48.908;9.140;2023-04-08T14:05:07;12.50;99.90
22984;DHT22;11658;48.908;9.140;2023-04-08T14:07:33;13.00;99.90
22984;DHT22;11658;48.908;9.140;2023-04-08T14:09:58;13.20;99.90
22984;DHT22;11658;48.908;9.140;2023-04-08T14:12:24;13.10;99.90
22984;DHT22;11658;48.908;9.140;2023-04-08T14:14:50;13.20;99.90
22984;DHT22;11658;48.908;9.140;2023-04-08T14:17:15;13.00;99.90
22984;DHT22;11658;48.908;9.140;2023-04-08T14:19:41;13.50;99.90
22984;DHT22;11658;48.908;9.140;2023-04-08T14:22:06;13.70;99.90
22984;DHT22;11658;48.908;9.140;2023-04-08T14:24:32;13.70;99.90
22984;DHT22;11658;48.908;9.140;2023-04-08T14:26:58;13.50;99.90
22984;DHT22;11658;48.908;9.140;2023-04-08T14:29:24;13.10;99.90
22984;DHT22;11658;48.908;9.140;2023-04-08T14:31:50;12.80;99.90
22984;DHT22;11658;48.908;9.140;2023-04-08T14:34:15;12.30;99.90
22984;DHT22;11658;48.908;9.140;2023-04-08T14:36:41;12.20;99.90
22984;DHT22;11658;48.908;9.140;2023-04-08T14:39:07;11.80;99.90
22984;DHT22;11658;48.908;9.140;2023-04-08T14:41:32;11.90;99.90
22984;DHT22;11658;48.908;9.140;2023-04-08T14:43:58;12.20;99.90
22984;DHT22;11658;48.908;9.140;2023-04-08T14:46:25;12.20;99.90
22984;DHT22;11658;48.908;9.140;2023-04-08T14:48:50;12.00;99.90
22984;DHT22;11658;48.908;9.140;2023-04-08T14:51:16;12.20;99.90
22984;DHT22;11658;48.908;9.140;2023-04-08T14:53:42;12.40;99.90
22984;DHT22;11658;48.908;9.140;2023-04-08T14:56:08;12.50;99.90
22984;DHT22;11658;48.908;9.140;2023-04-08T14:58:33;12.40;99.90
22984;DHT22;11658;48.908;9.140;2023-04-08T15:00:59;12.40;99.90
22984;DHT22;11658;48.908;9.140;2023-04-08T15:03:24;12.40;99.90
22984;DHT22;11658;48.908;9.140;2023-04-08T15:05:50;12.40;99.90
22984;DHT22;11658;48.908;9.140;2023-04-08T15:08:16;12.50;99.90
22984;DHT22;11658;48.908;9.140;2023-04-08T15:10:41;12.30;99.90
22984;DHT22;11658;48.908;9.140;2023-04-08T15:13:07;12.20;99.90
22984;DHT22;11658;48.908;9.140;2023-04-08T15:15:32;12.10;99.90
22984;DHT22;11658;48.908;9.140;2023-04-08T15:17:58;11.80;99.90
22984;DHT22;11658;48.908;9.140;2023-04-08T15:20:24;11.60;99.90
22984;DHT22;11658;48.908;9.140;2023-04-08T15:22:49;11.50;99.90
22984;DHT22;11658;48.908;9.140;2023-04-08T15:25:15;11.50;99.90
22984;DHT22;11658;48.908;9.140;2023-04-08T15:27:41;11.50;99.90
22984;DHT22;11658;48.908;9.140;2023-04-08T15:30:07;11.60;99.90
22984;DHT22;11658;48.908;9.140;2023-04-08T15:32:33;11.70;99.90
22984;DHT22;11658;48.908;9.140;2023-04-08T15:34:59;11.60;99.90
22984;DHT22;11658;48.908;9.140;2023-04-08T15:37:25;11.50;99.90
22984;DHT22;11658;48.908;9.140;2023-04-08T15:39:51;11.30;99.90
22984;DHT22;11658;48.908;9.140;2023-04-08T15:42:20;11.30;99.90
22984;DHT22;11658;48.908;9.140;2023-04-08T15:44:46;11.30;99.90
22984;DHT22;11658;48.908;9.140;2023-04-08T15:47:11;11.20;99.90
22984;DHT22;11658;48.908;9.140;2023-04-08T15:49:37;11.20;99.90
22984;DHT22;11658;48.908;9.140;2023-04-08T15:52:03;11.20;99.90
22984;DHT22;11658;48.908;9.140;2023-04-08T15:54:29;11.10;99.90
22984;DHT22;11658;48.908;9.140;2023-04-08T15:56:56;10.90;99.90
22984;DHT22;11658;48.908;9.140;2023-04-08T15:59:22;10.90;99.90
22984;DHT22;11658;48.908;9.140;2023-04-08T16:01:47;10.90;99.90
22984;DHT22;11658;48.908;9.140;2023-04-08T16:04:13;11.00;99.90
22984;DHT22;11658;48.908;9.140;2023-04-08T16:06:38;11.00;99.90
22984;DHT22;11658;48.908;9.140;2023-04-08T16:09:04;10.90;99.90
22984;DHT22;11658;48.908;9.140;2023-04-08T16:11:32;10.80;99.90
22984;DHT22;11658;48.908;9.140;2023-04-08T16:13:58;10.80;99.90
22984;DHT22;11658;48.908;9.140;2023-04-08T16:16:23;10.70;99.90
22984;DHT22;11658;48.908;9.140;2023-04-08T16:18:49;10.60;99.90
22984;DHT22;11658;48.908;9.140;2023-04-08T16:21:14;10.60;99.90
22984;DHT22;11658;48.908;9.140;2023-04-08T16:23:41;10.50;99.90
22984;DHT22;11658;48.908;9.140;2023-04-08T16:26:07;10.40;99.90
22984;DHT22;11658;48.908;9.140;2023-04-08T16:28:33;10.50;99.90
22984;DHT22;11658;48.908;9.140;2023-04-08T16:30:58;10.40;99.90
22984;DHT22;11658;48.908;9.140;2023-04-08T16:33:24;10.30;99.90
22984;DHT22;11658;48.908;9.140;2023-04-08T16:35:58;10.20;99.90
22984;DHT22;11658;48.908;9.140;2023-04-08T16:38:24;10.20;99.90
22984;DHT22;11658;48.908;9.140;2023-04-08T16:40:50;10.20;99.90
22984;DHT22;11658;48.908;9.140;2023-04-08T16:43:16;10.10;99.90
22984;DHT22;11658;48.908;9.140;2023-04-08T16:45:42;10.20;99.90
22984;DHT22;11658;48.908;9.140;2023-04-08T16:48:08;10.10;99.90
22984;DHT22;11658;48.908;9.140;2023-04-08T16:50:39;10.10;99.90
22984;DHT22;11658;48.908;9.140;2023-04-08T16:53:05;10.10;99.90
22984;DHT22;11658;48.908;9.140;2023-04-08T16:55:32;10.20;99.90
22984;DHT22;11658;48.908;9.140;2023-04-08T16:57:58;10.10;99.90
22984;DHT22;11658;48.908;9.140;2023-04-08T17:00:24;10.20;99.90
22984;DHT22;11658;48.908;9.140;2023-04-08T17:02:49;10.30;99.90
22984;DHT22;11658;48.908;9.140;2023-04-08T17:05:17;10.40;99.90
22984;DHT22;11658;48.908;9.140;2023-04-08T17:07:42;10.40;99.90
22984;DHT22;11658;48.908;9.140;2023-04-08T17:10:09;10.30;99.90
22984;DHT22;11658;48.908;9.140;2023-04-08T17:12:35;10.30;99.90
22984;DHT22;11658;48.908;9.140;2023-04-08T17:15:01;10.40;99.90
22984;DHT22;11658;48.908;9.140;2023-04-08T17:17:27;10.30;99.90
22984;DHT22;11658;48.908;9.140;2023-04-08T17:19:52;10.40;99.90
22984;DHT22;11658;48.908;9.140;2023-04-08T17:22:18;10.40;99.90
22984;DHT22;11658;48.908;9.140;2023-04-08T17:24:43;10.30;99.90
22984;DHT22;11658;48.908;9.140;2023-04-08T17:27:10;10.30;99.90
22984;DHT22;11658;48.908;9.140;2023-04-08T17:29:36;10.20;99.90
22984;DHT22;11658;48.908;9.140;2023-04-08T17:32:01;10.30;99.90
22984;DHT22;11658;48.908;9.140;2023-04-08T17:34:27;10.20;99.90
22984;DHT22;11658;48.908;9.140;2023-04-08T17:36:53;10.20;99.90
22984;DHT22;11658;48.908;9.140;2023-04-08T17:39:19;10.20;99.90
22984;DHT22;11658;48.908;9.140;2023-04-08T17:41:44;10.20;99.90
22984;DHT22;11658;48.908;9.140;2023-04-08T17:44:10;10.10;99.90
22984;DHT22;11658;48.908;9.140;2023-04-08T17:46:36;10.00;99.90
22984;DHT22;11658;48.908;9.140;2023-04-08T17:49:01;10.00;99.90
22984;DHT22;11658;48.908;9.140;2023-04-08T17:51:27;10.00;99.90
22984;DHT22;11658;48.908;9.140;2023-04-08T17:53:54;9.90;99.90
22984;DHT22;11658;48.908;9.140;2023-04-08T17:56:20;9.80;99.90
22984;DHT22;11658;48.908;9.140;2023-04-08T17:58:46;9.70;99.90
22984;DHT22;11658;48.908;9.140;2023-04-08T18:01:12;9.70;99.90
22984;DHT22;11658;48.908;9.140;2023-04-08T18:03:39;9.70;99.90
22984;DHT22;11658;48.908;9.140;2023-04-08T18:06:08;9.60;99.90
22984;DHT22;11658;48.908;9.140;2023-04-08T18:08:34;9.60;99.90
22984;DHT22;11658;48.908;9.140;2023-04-08T18:11:06;9.70;99.90
22984;DHT22;11658;48.908;9.140;2023-04-08T18:13:32;9.70;99.90
22984;DHT22;11658;48.908;9.140;2023-04-08T18:15:58;9.70;99.90
22984;DHT22;11658;48.908;9.140;2023-04-08T18:18:23;9.70;99.90
22984;DHT22;11658;48.908;9.140;2023-04-08T18:20:49;9.60;99.90
22984;DHT22;11658;48.908;9.140;2023-04-08T18:23:15;9.60;99.90
22984;DHT22;11658;48.908;9.140;2023-04-08T18:25:41;9.50;99.90
22984;DHT22;11658;48.908;9.140;2023-04-08T18:28:09;9.50;99.90
22984;DHT22;11658;48.908;9.140;2023-04-08T18:30:35;9.50;99.90
22984;DHT22;11658;48.908;9.140;2023-04-08T18:33:01;9.40;99.90
22984;DHT22;11658;48.908;9.140;2023-04-08T18:35:26;9.40;99.90
22984;DHT22;11658;48.908;9.140;2023-04-08T18:37:52;9.40;99.90
22984;DHT22;11658;48.908;9.140;2023-04-08T18:40:17;9.40;99.90
22984;DHT22;11658;48.908;9.140;2023-04-08T18:42:43;9.40;99.90
22984;DHT22;11658;48.908;9.140;2023-04-08T18:45:08;9.40;99.90
22984;DHT22;11658;48.908;9.140;2023-04-08T18:47:34;9.40;99.90
22984;DHT22;11658;48.908;9.140;2023-04-08T18:50:00;9.40;99.90
22984;DHT22;11658;48.908;9.140;2023-04-08T18:52:26;9.40;99.90
22984;DHT22;11658;48.908;9.140;2023-04-08T18:54:51;9.40;99.90
22984;DHT22;11658;48.908;9.140;2023-04-08T18:57:17;9.50;99.90
22984;DHT22;11658;48.908;9.140;2023-04-08T18:59:46;9.50;99.90
22984;DHT22;11658;48.908;9.140;2023-04-08T19:02:12;9.40;99.90
22984;DHT22;11658;48.908;9.140;2023-04-08T19:04:38;9.40;99.90
22984;DHT22;11658;48.908;9.140;2023-04-08T19:07:04;9.40;99.90
22984;DHT22;11658;48.908;9.140;2023-04-08T19:09:29;9.40;99.90
22984;DHT22;11658;48.908;9.140;2023-04-08T19:11:55;9.40;99.90
22984;DHT22;11658;48.908;9.140;2023-04-08T19:14:20;9.40;99.90
22984;DHT22;11658;48.908;9.140;2023-04-08T19:16:46;9.30;99.90
22984;DHT22;11658;48.908;9.140;2023-04-08T19:19:12;9.30;99.90
22984;DHT22;11658;48.908;9.140;2023-04-08T19:21:37;9.30;99.90
22984;DHT22;11658;48.908;9.140;2023-04-08T19:24:04;9.30;99.90
22984;DHT22;11658;48.908;9.140;2023-04-08T19:26:31;9.30;99.90
22984;DHT22;11658;48.908;9.140;2023-04-08T19:28:57;9.20;99.90
22984;DHT22;11658;48.908;9.140;2023-04-08T19:31:22;9.30;99.90
22984;DHT22;11658;48.908;9.140;2023-04-08T19:33:48;9.30;99.90
22984;DHT22;11658;48.908;9.140;2023-04-08T19:36:13;9.30;99.90
22984;DHT22;11658;48.908;9.140;2023-04-08T19:38:39;9.30;99.90